Kalispell, Montana
Current Conditions -  °F | °C
As of 12:55 PM on Monday 22 Dec 2014 (Local Time) from KGPI Reporting Station
Overcast Overcast  
Wind Chill:   Ceiling: 6000
Heat Index:   Visibility: 10mi
Dew Point:   Wind: 5mph
Humidity: 82%   Direction: 170°S
Pressure: 30.02"   Gusts: NA
Location:  48.2°N, 114.31°W
Report Text: KGPI 221955Z 17004KT 10SM OVC060 03/00 A3002 RMK AO2 SLP189 T00280000
Loading
Personal Weather Stations






























Interactive Weather Map New forecast layout! Learn more

10-Day Weather Forecast

Advertisements
Track Severe Weather on mobile